createdAt,value
2023-02-11T00:00:57.417Z,15.47
2023-02-11T00:03:24.761Z,14.67
2023-02-11T00:05:59.591Z,14.30
2023-02-11T00:08:27.488Z,15.30
2023-02-11T00:10:55.900Z,15.60
2023-02-11T00:13:23.559Z,15.13
2023-02-11T00:15:51.694Z,14.93
2023-02-11T00:18:19.150Z,15.27
2023-02-11T00:20:46.712Z,15.07
2023-02-11T00:23:16.715Z,15.10
2023-02-11T00:25:44.625Z,15.27
2023-02-11T00:28:12.062Z,14.23
2023-02-11T00:30:41.423Z,15.20
2023-02-11T00:33:09.322Z,15.50
2023-02-11T00:35:38.473Z,14.73
2023-02-11T00:38:08.323Z,15.03
2023-02-11T00:40:35.920Z,14.23
2023-02-11T00:43:04.200Z,14.93
2023-02-11T00:45:31.526Z,13.10
2023-02-11T00:47:58.787Z,14.37
2023-02-11T00:50:28.701Z,15.60
2023-02-11T00:52:56.370Z,14.03
2023-02-11T00:55:23.700Z,14.67
2023-02-11T00:57:50.968Z,14.23
2023-02-11T01:00:18.335Z,14.20
2023-02-11T01:02:45.873Z,12.63
2023-02-11T01:05:13.145Z,14.53
2023-02-11T01:07:40.390Z,13.53
2023-02-11T01:10:26.525Z,14.73
2023-02-11T01:12:53.776Z,14.93
2023-02-11T01:15:21.605Z,13.33
2023-02-11T01:17:48.882Z,14.77
2023-02-11T01:20:18.116Z,14.07
2023-02-11T01:22:45.305Z,13.97
2023-02-11T01:25:12.692Z,14.20
2023-02-11T01:27:40.009Z,14.50
2023-02-11T01:30:09.550Z,14.17
2023-02-11T01:32:36.942Z,14.37
2023-02-11T01:35:04.367Z,14.23
2023-02-11T01:37:33.534Z,14.43
2023-02-11T01:40:02.141Z,14.23
2023-02-11T01:42:29.533Z,15.43
2023-02-11T01:47:43.919Z,14.30
2023-02-11T01:50:12.011Z,15.40
2023-02-11T01:52:40.681Z,15.23
2023-02-11T01:55:30.243Z,15.17
2023-02-11T01:57:58.960Z,14.63
2023-02-11T02:00:33.016Z,15.30
2023-02-11T02:03:05.832Z,14.77
2023-02-11T02:05:36.841Z,15.30
2023-02-11T02:08:23.761Z,15.07
2023-02-11T02:10:54.697Z,15.17
2023-02-11T02:13:21.990Z,15.70
2023-02-11T02:15:54.096Z,15.20
2023-02-11T02:18:27.811Z,14.87
2023-02-11T02:21:13.788Z,15.23
2023-02-11T02:24:12.565Z,15.70
2023-02-11T02:26:59.791Z,16.50
2023-02-11T02:29:44.477Z,15.63
2023-02-11T02:32:24.328Z,15.77
2023-02-11T02:34:54.525Z,14.90
2023-02-11T02:37:36.849Z,14.87
2023-02-11T02:40:08.585Z,15.67
2023-02-11T02:42:36.145Z,15.57
2023-02-11T02:45:03.417Z,16.03
2023-02-11T02:47:30.673Z,15.57
2023-02-11T02:49:57.866Z,14.73
2023-02-11T02:52:28.093Z,15.67
2023-02-11T02:55:03.337Z,16.13
2023-02-11T02:57:33.456Z,14.83
2023-02-11T03:00:07.264Z,14.87
2023-02-11T03:02:58.833Z,14.80
2023-02-11T03:06:02.840Z,14.57
2023-02-11T03:08:51.651Z,14.73
2023-02-11T03:11:20.236Z,15.23
2023-02-11T03:13:48.157Z,15.10
2023-02-11T03:16:23.684Z,15.53
2023-02-11T03:18:53.894Z,15.13
2023-02-11T03:21:21.504Z,15.00
2023-02-11T03:23:52.258Z,15.60
2023-02-11T03:26:24.057Z,15.37
2023-02-11T03:28:54.140Z,14.63
2023-02-11T03:31:27.847Z,14.53
2023-02-11T03:34:02.374Z,13.97
2023-02-11T03:36:38.746Z,15.20
2023-02-11T03:39:06.562Z,15.70
2023-02-11T03:41:35.129Z,15.50
2023-02-11T03:44:03.264Z,15.37
2023-02-11T03:46:36.249Z,15.33
2023-02-11T03:49:04.898Z,15.70
2023-02-11T03:51:33.195Z,16.33
2023-02-11T03:54:02.651Z,16.03
2023-02-11T03:56:31.638Z,16.13
2023-02-11T03:58:59.494Z,16.03
2023-02-11T04:01:26.776Z,15.37
2023-02-11T04:03:54.071Z,16.53
2023-02-11T04:06:21.280Z,16.30
2023-02-11T04:08:48.674Z,16.10
2023-02-11T04:11:15.913Z,15.90
2023-02-11T04:13:43.231Z,16.20
2023-02-11T04:16:10.465Z,16.87
2023-02-11T04:18:37.733Z,15.70
2023-02-11T04:21:05.019Z,16.73
2023-02-11T04:23:32.521Z,16.70
2023-02-11T04:25:59.772Z,16.00
2023-02-11T04:28:29.412Z,16.53
2023-02-11T04:30:57.221Z,16.87
2023-02-11T04:33:24.946Z,16.87
2023-02-11T04:35:52.556Z,16.83
2023-02-11T04:38:19.935Z,17.80
2023-02-11T04:40:47.178Z,16.30
2023-02-11T04:43:14.391Z,17.17
2023-02-11T04:45:41.686Z,16.23
2023-02-11T04:48:08.926Z,15.83
2023-02-11T04:50:36.186Z,15.87
2023-02-11T04:53:03.372Z,16.43
2023-02-11T04:55:30.632Z,15.83
2023-02-11T04:57:57.872Z,16.03
2023-02-11T05:00:25.186Z,16.67
2023-02-11T05:02:52.473Z,16.20
2023-02-11T05:05:19.914Z,16.37
2023-02-11T05:07:48.290Z,16.57
2023-02-11T05:10:17.642Z,16.17
2023-02-11T05:12:44.992Z,17.63
2023-02-11T05:15:12.228Z,16.50
2023-02-11T05:17:39.615Z,16.10
2023-02-11T05:20:07.245Z,16.40
2023-02-11T05:22:34.608Z,17.57
2023-02-11T05:25:01.855Z,18.03
2023-02-11T05:27:29.420Z,16.47
2023-02-11T05:29:56.608Z,16.97
2023-02-11T05:32:25.448Z,16.73
2023-02-11T05:34:52.736Z,16.50
2023-02-11T05:37:20.082Z,16.53
2023-02-11T05:39:47.439Z,16.93
2023-02-11T05:42:14.982Z,17.23
2023-02-11T05:44:42.223Z,16.67
2023-02-11T05:47:09.594Z,16.27
2023-02-11T05:49:36.952Z,17.67
2023-02-11T05:52:04.403Z,17.07
2023-02-11T05:54:33.992Z,18.10
2023-02-11T05:57:01.197Z,16.57
2023-02-11T05:59:28.473Z,18.60
2023-02-11T06:01:55.698Z,17.47
2023-02-11T06:04:23.016Z,18.97
2023-02-11T06:06:50.224Z,18.57
2023-02-11T06:09:17.459Z,18.97
2023-02-11T06:11:44.666Z,17.40
2023-02-11T06:14:12.139Z,18.23
2023-02-11T06:16:39.533Z,17.60
2023-02-11T06:19:06.728Z,18.60
2023-02-11T06:21:43.420Z,18.47
2023-02-11T06:24:11.847Z,18.80
2023-02-11T06:26:39.114Z,17.93
2023-02-11T06:29:06.350Z,18.70
2023-02-11T06:31:33.689Z,18.70
2023-02-11T06:34:01.471Z,17.90
2023-02-11T06:36:28.767Z,19.57
2023-02-11T06:38:56.007Z,18.10
2023-02-11T06:41:23.911Z,17.80
2023-02-11T06:43:51.354Z,18.03
2023-02-11T06:46:18.680Z,18.77
2023-02-11T06:48:46.037Z,18.63
2023-02-11T06:51:14.049Z,17.60
2023-02-11T06:53:47.824Z,15.87
2023-02-11T06:56:17.114Z,17.50
2023-02-11T06:58:44.903Z,19.97
2023-02-11T07:01:14.641Z,17.53
2023-02-11T07:03:43.305Z,18.07
2023-02-11T07:06:12.875Z,17.90
2023-02-11T07:08:42.401Z,16.87
2023-02-11T07:11:10.746Z,18.00
2023-02-11T07:13:37.925Z,18.47
2023-02-11T07:16:07.243Z,17.73
2023-02-11T07:18:34.648Z,18.37
2023-02-11T07:21:09.820Z,17.93
2023-02-11T07:23:37.682Z,17.80
2023-02-11T07:26:05.979Z,18.23
2023-02-11T07:28:34.501Z,19.10
2023-02-11T07:31:12.402Z,17.93
2023-02-11T07:33:40.056Z,18.70
2023-02-11T07:36:08.795Z,19.10
2023-02-11T07:38:36.458Z,17.30
2023-02-11T07:41:04.504Z,19.07
2023-02-11T07:43:32.399Z,18.90
2023-02-11T07:45:59.645Z,19.03
2023-02-11T07:48:26.824Z,18.80
2023-02-11T07:50:54.039Z,20.43
2023-02-11T07:53:39.984Z,18.57
2023-02-11T07:56:07.998Z,18.43
2023-02-11T07:58:35.283Z,19.00
2023-02-11T08:01:03.811Z,18.60
2023-02-11T08:03:31.135Z,17.83
2023-02-11T08:05:58.624Z,18.70
2023-02-11T08:08:29.156Z,19.30
2023-02-11T08:10:56.424Z,18.20
2023-02-11T08:13:23.645Z,17.77
2023-02-11T08:15:51.075Z,18.13
2023-02-11T08:18:19.630Z,19.03
2023-02-11T08:20:46.855Z,18.63
2023-02-11T08:23:14.094Z,18.83
2023-02-11T08:25:41.256Z,18.37
2023-02-11T08:28:09.217Z,17.47
2023-02-11T08:30:36.715Z,18.33
2023-02-11T08:33:04.035Z,18.87
2023-02-11T08:35:31.326Z,17.37
2023-02-11T08:37:58.552Z,18.57
2023-02-11T08:40:25.812Z,17.77
2023-02-11T08:42:53.068Z,17.70
2023-02-11T08:45:20.328Z,16.93
2023-02-11T08:47:47.548Z,17.70
2023-02-11T08:50:14.821Z,17.63
2023-02-11T08:52:43.041Z,16.97
2023-02-11T08:55:10.294Z,17.37
2023-02-11T08:57:37.570Z,16.67
2023-02-11T09:00:05.068Z,18.07
2023-02-11T09:02:32.390Z,18.07
2023-02-11T09:04:59.656Z,16.23
2023-02-11T09:07:26.883Z,17.37
2023-02-11T09:09:54.089Z,15.80
2023-02-11T09:12:21.347Z,16.33
2023-02-11T09:14:48.699Z,16.43
2023-02-11T09:17:15.910Z,17.27
2023-02-11T09:19:43.182Z,17.83
2023-02-11T09:22:10.421Z,18.17
2023-02-11T09:24:37.597Z,17.77
2023-02-11T09:27:04.857Z,18.57
2023-02-11T09:32:19.446Z,16.90
2023-02-11T09:34:46.688Z,16.77
2023-02-11T09:37:13.935Z,17.10
2023-02-11T09:39:41.457Z,18.33
2023-02-11T09:42:24.752Z,18.83
2023-02-11T09:44:52.347Z,18.10
2023-02-11T09:47:22.421Z,18.00
2023-02-11T09:49:51.298Z,17.07
2023-02-11T09:52:33.224Z,17.97
2023-02-11T09:55:01.914Z,17.87
2023-02-11T09:57:33.160Z,18.93
2023-02-11T10:00:01.192Z,17.63
2023-02-11T10:02:45.046Z,17.60
2023-02-11T10:05:32.873Z,18.07
2023-02-11T10:08:16.924Z,17.87
2023-02-11T10:10:59.363Z,19.07
2023-02-11T10:13:32.474Z,18.03
2023-02-11T10:16:00.056Z,19.00
2023-02-11T10:18:46.129Z,18.17
2023-02-11T10:21:18.097Z,17.43
2023-02-11T10:23:47.392Z,18.30
2023-02-11T10:26:16.833Z,17.97
2023-02-11T10:28:46.089Z,18.47
2023-02-11T10:31:23.377Z,17.87
2023-02-11T10:33:55.015Z,17.17
2023-02-11T10:36:23.970Z,18.10
2023-02-11T10:38:51.252Z,17.63
2023-02-11T10:41:21.010Z,17.47
2023-02-11T10:43:48.322Z,17.03
2023-02-11T10:46:18.358Z,17.33
2023-02-11T10:48:51.559Z,17.33
2023-02-11T10:51:23.394Z,18.33
2023-02-11T10:54:14.379Z,17.43
2023-02-11T10:56:45.707Z,16.63
2023-02-11T10:59:21.147Z,16.43
2023-02-11T11:01:53.408Z,17.03
2023-02-11T11:04:30.615Z,16.60
2023-02-11T11:06:59.301Z,16.93
2023-02-11T11:09:30.409Z,17.07
2023-02-11T11:11:57.749Z,16.43
2023-02-11T11:14:28.968Z,16.80
2023-02-11T11:16:56.448Z,14.90
2023-02-11T11:19:24.677Z,17.10
2023-02-11T11:21:56.322Z,17.63
2023-02-11T11:24:33.567Z,16.70
2023-02-11T11:27:02.359Z,16.63
2023-02-11T11:29:34.721Z,17.30
2023-02-11T11:32:05.582Z,15.50
2023-02-11T11:34:38.658Z,17.23
2023-02-11T11:37:13.669Z,18.03
2023-02-11T11:39:41.263Z,19.20
2023-02-11T11:42:31.796Z,17.93
2023-02-11T11:45:20.365Z,17.50
2023-02-11T11:47:58.687Z,17.60
2023-02-11T11:50:27.957Z,16.83
2023-02-11T11:53:15.399Z,16.53
2023-02-11T11:55:48.977Z,16.80
2023-02-11T11:58:17.955Z,17.43
2023-02-11T12:00:52.998Z,16.67
2023-02-11T12:03:37.694Z,16.30
2023-02-11T12:06:32.699Z,16.00
2023-02-11T12:09:03.096Z,15.67
2023-02-11T12:11:49.220Z,17.63
2023-02-11T12:14:35.188Z,13.93
2023-02-11T12:17:08.280Z,16.47
2023-02-11T12:19:35.514Z,15.83
2023-02-11T12:22:05.864Z,15.67
2023-02-11T12:24:45.355Z,15.63
2023-02-11T12:30:02.637Z,15.93
2023-02-11T12:32:48.541Z,15.30
2023-02-11T12:35:35.040Z,15.57
2023-02-11T12:38:08.349Z,15.47
2023-02-11T12:40:35.671Z,16.23
2023-02-11T12:43:16.934Z,15.10
2023-02-11T12:45:44.302Z,18.67
2023-02-11T12:48:29.059Z,15.70
2023-02-11T12:50:56.850Z,16.30
2023-02-11T12:53:36.458Z,14.43
2023-02-11T12:56:16.158Z,15.53
2023-02-11T12:58:45.683Z,15.37
2023-02-11T13:01:24.835Z,15.70
2023-02-11T13:03:57.492Z,15.83
2023-02-11T13:06:34.655Z,15.93
2023-02-11T13:09:03.944Z,16.83
2023-02-11T13:11:35.538Z,14.53
2023-02-11T13:14:05.056Z,15.97
2023-02-11T13:16:45.997Z,16.63
2023-02-11T13:19:31.541Z,15.57
2023-02-11T13:22:18.360Z,16.87
2023-02-11T13:24:50.889Z,15.53
2023-02-11T13:27:22.855Z,15.37
2023-02-11T13:29:50.161Z,15.00
2023-02-11T13:32:17.449Z,15.60
2023-02-11T13:34:44.661Z,15.27
2023-02-11T13:37:26.628Z,16.50
2023-02-11T13:40:12.768Z,16.30
2023-02-11T13:42:50.941Z,16.80
2023-02-11T13:45:25.796Z,16.30
2023-02-11T13:47:57.554Z,15.53
2023-02-11T13:50:25.619Z,15.43
2023-02-11T13:53:03.431Z,15.53
2023-02-11T13:55:31.256Z,15.73
2023-02-11T13:58:07.616Z,15.77
2023-02-11T14:00:34.931Z,15.57
2023-02-11T14:03:30.236Z,16.20
2023-02-11T14:06:35.880Z,16.20
2023-02-11T14:09:09.415Z,15.53
2023-02-11T14:11:56.366Z,15.40
2023-02-11T14:14:24.193Z,15.23
2023-02-11T14:17:03.580Z,16.37
2023-02-11T14:19:33.006Z,15.30
2023-02-11T14:22:04.147Z,15.70
2023-02-11T14:24:31.422Z,15.23
2023-02-11T14:27:01.366Z,15.50
2023-02-11T14:29:41.819Z,16.40
2023-02-11T14:32:24.202Z,17.03
2023-02-11T14:35:01.167Z,15.70
2023-02-11T14:37:31.541Z,15.40
2023-02-11T14:40:08.237Z,15.23
2023-02-11T14:42:37.928Z,15.17
2023-02-11T14:45:07.183Z,16.30
2023-02-11T14:47:54.701Z,15.10
2023-02-11T14:50:42.190Z,15.03
2023-02-11T14:53:13.931Z,15.53
2023-02-11T14:55:42.597Z,15.47
2023-02-11T14:58:12.804Z,15.80
2023-02-11T15:00:49.324Z,16.83
2023-02-11T15:03:32.248Z,14.43
2023-02-11T15:06:04.747Z,15.37
2023-02-11T15:08:32.645Z,15.03
2023-02-11T15:11:01.715Z,15.33
2023-02-11T15:13:31.368Z,18.57
2023-02-11T15:16:02.088Z,16.80
2023-02-11T15:18:33.956Z,15.20
2023-02-11T15:21:01.377Z,14.13
2023-02-11T15:23:30.153Z,15.67
2023-02-11T15:25:57.489Z,16.53
2023-02-11T15:28:24.805Z,15.93
2023-02-11T15:31:18.857Z,14.77
2023-02-11T15:33:46.470Z,13.90
2023-02-11T15:36:14.515Z,14.63
2023-02-11T15:38:41.810Z,15.70
2023-02-11T15:41:09.738Z,15.73
2023-02-11T15:43:44.581Z,14.80
2023-02-11T15:46:13.840Z,15.40
2023-02-11T15:48:59.214Z,15.80
2023-02-11T15:51:32.896Z,15.30
2023-02-11T15:54:01.601Z,13.70
2023-02-11T15:56:49.199Z,14.40
2023-02-11T15:59:20.842Z,14.40
2023-02-11T16:01:48.985Z,14.77
2023-02-11T16:04:24.191Z,14.20
2023-02-11T16:06:51.546Z,14.33
2023-02-11T16:09:25.193Z,15.53
2023-02-11T16:12:10.946Z,15.57
2023-02-11T16:14:39.423Z,15.67
2023-02-11T16:17:13.901Z,15.03
2023-02-11T16:19:45.377Z,15.57
2023-02-11T16:22:16.527Z,15.50
2023-02-11T16:24:47.102Z,14.40
2023-02-11T16:27:29.791Z,14.77
2023-02-11T16:29:57.916Z,15.73
2023-02-11T16:32:26.050Z,16.43
2023-02-11T16:34:55.122Z,16.83
2023-02-11T16:37:22.458Z,15.40
2023-02-11T16:39:49.729Z,16.10
2023-02-11T16:42:17.055Z,16.80
2023-02-11T16:44:44.288Z,15.53
2023-02-11T16:47:19.168Z,16.20
2023-02-11T16:49:46.599Z,16.77
2023-02-11T16:52:15.338Z,16.13
2023-02-11T16:54:42.760Z,15.63
2023-02-11T16:57:14.226Z,16.73
2023-02-11T16:59:41.465Z,16.83
2023-02-11T17:02:16.781Z,15.87
2023-02-11T17:04:44.557Z,17.80
2023-02-11T17:07:11.802Z,17.37
2023-02-11T17:09:39.112Z,16.93
2023-02-11T17:12:06.505Z,16.90
2023-02-11T17:14:33.721Z,18.20
2023-02-11T17:17:01.658Z,17.77
2023-02-11T17:19:29.001Z,17.97
2023-02-11T17:21:56.168Z,17.83
2023-02-11T17:24:23.963Z,17.87
2023-02-11T17:26:51.503Z,17.33
2023-02-11T17:29:20.414Z,17.40
2023-02-11T17:34:32.767Z,18.00
2023-02-11T17:37:00.306Z,17.70
2023-02-11T17:39:27.977Z,18.40
2023-02-11T17:41:55.287Z,17.47
2023-02-11T17:44:22.536Z,16.13
2023-02-11T17:46:49.767Z,16.57
2023-02-11T17:49:17.018Z,17.43
2023-02-11T17:51:44.622Z,17.33
2023-02-11T17:54:13.620Z,17.67
2023-02-11T17:56:41.381Z,18.07
2023-02-11T17:59:09.297Z,18.27
2023-02-11T18:01:37.485Z,16.00
2023-02-11T18:04:05.104Z,17.53
2023-02-11T18:06:33.843Z,17.13
2023-02-11T18:09:02.328Z,17.13
2023-02-11T18:11:30.492Z,18.13
2023-02-11T18:14:01.580Z,16.13
2023-02-11T18:16:30.411Z,17.30
2023-02-11T18:18:59.430Z,18.00
2023-02-11T18:21:27.076Z,17.43
2023-02-11T18:23:54.368Z,17.37
2023-02-11T18:26:22.222Z,18.20
2023-02-11T18:28:49.526Z,18.20
2023-02-11T18:31:17.826Z,16.70
2023-02-11T18:33:45.784Z,16.77
2023-02-11T18:36:14.233Z,17.20
2023-02-11T18:38:42.036Z,18.00
2023-02-11T18:41:09.723Z,17.50
2023-02-11T18:43:37.462Z,18.83
2023-02-11T18:46:09.139Z,18.27
2023-02-11T18:48:37.149Z,17.10
2023-02-11T18:51:08.945Z,18.53
2023-02-11T18:53:36.393Z,17.57
2023-02-11T18:56:07.121Z,17.93
2023-02-11T18:58:34.374Z,18.63
2023-02-11T19:01:01.660Z,18.57
2023-02-11T19:03:28.875Z,18.50
2023-02-11T19:05:56.093Z,18.73
2023-02-11T19:08:23.606Z,19.97
2023-02-11T19:10:52.118Z,18.47
2023-02-11T19:13:19.373Z,20.20
2023-02-11T19:15:48.360Z,18.20
2023-02-11T19:18:16.725Z,18.40
2023-02-11T19:20:44.442Z,18.80
2023-02-11T19:23:12.026Z,16.97
2023-02-11T19:25:45.036Z,18.37
2023-02-11T19:28:13.064Z,26.33
2023-02-11T19:30:40.439Z,17.47
2023-02-11T19:33:10.069Z,17.30
2023-02-11T19:35:37.494Z,18.60
2023-02-11T19:38:05.847Z,17.77
2023-02-11T19:40:33.429Z,19.03
2023-02-11T19:43:00.610Z,17.13
2023-02-11T19:45:27.884Z,17.57
2023-02-11T19:47:55.924Z,17.17
2023-02-11T19:50:23.528Z,16.57
2023-02-11T19:52:50.788Z,17.83
2023-02-11T19:55:18.298Z,16.57
2023-02-11T19:57:48.019Z,17.57
2023-02-11T20:00:15.475Z,16.97
2023-02-11T20:02:43.959Z,16.10
2023-02-11T20:05:11.401Z,16.33
2023-02-11T20:07:38.619Z,16.67
2023-02-11T20:10:06.817Z,16.10
2023-02-11T20:12:34.076Z,15.07
2023-02-11T20:15:01.296Z,15.13
2023-02-11T20:17:28.522Z,15.97
2023-02-11T20:19:55.828Z,17.43
2023-02-11T20:22:23.036Z,18.27
2023-02-11T20:24:50.230Z,16.80
2023-02-11T20:27:19.980Z,17.03
2023-02-11T20:29:47.398Z,15.47
2023-02-11T20:32:15.415Z,15.27
2023-02-11T20:34:42.695Z,15.97
2023-02-11T20:37:10.537Z,15.47
2023-02-11T20:39:40.877Z,15.90
2023-02-11T20:42:12.040Z,15.13
2023-02-11T20:44:39.533Z,15.33
2023-02-11T20:47:06.753Z,16.13
2023-02-11T20:49:34.079Z,15.57
2023-02-11T20:52:01.259Z,15.90
2023-02-11T20:54:28.711Z,15.60
2023-02-11T20:56:57.041Z,16.10
2023-02-11T20:59:24.708Z,16.30
2023-02-11T21:01:54.105Z,16.00
2023-02-11T21:04:40.396Z,17.13
2023-02-11T21:07:07.670Z,18.63
2023-02-11T21:09:34.921Z,19.90
2023-02-11T21:12:02.779Z,17.53
2023-02-11T21:14:30.373Z,17.13
2023-02-11T21:16:57.878Z,17.60
2023-02-11T21:19:25.397Z,16.83
2023-02-11T21:21:52.787Z,16.83
2023-02-11T21:24:20.038Z,17.60
2023-02-11T21:26:47.413Z,17.33
2023-02-11T21:29:14.651Z,17.20
2023-02-11T21:31:42.284Z,16.83
2023-02-11T21:34:10.853Z,16.90
2023-02-11T21:36:38.067Z,16.30
2023-02-11T21:39:05.989Z,17.47
2023-02-11T21:41:33.306Z,17.13
2023-02-11T21:44:00.586Z,17.50
2023-02-11T21:46:28.117Z,17.07
2023-02-11T21:49:14.032Z,17.10
2023-02-11T21:51:41.541Z,16.30
2023-02-11T21:54:08.939Z,16.73
2023-02-11T21:56:36.770Z,15.87
2023-02-11T21:59:04.449Z,17.10
2023-02-11T22:01:33.146Z,16.07
2023-02-11T22:04:00.901Z,18.60
2023-02-11T22:06:31.011Z,16.13
2023-02-11T22:08:58.661Z,16.73
2023-02-11T22:11:25.902Z,16.03
2023-02-11T22:13:56.501Z,17.17
2023-02-11T22:16:24.218Z,17.20
2023-02-11T22:18:51.656Z,20.43
2023-02-11T22:21:20.540Z,17.93
2023-02-11T22:23:48.140Z,18.10
2023-02-11T22:26:17.488Z,17.60
2023-02-11T22:28:44.733Z,18.13
2023-02-11T22:31:13.563Z,18.03
2023-02-11T22:33:40.873Z,18.07
2023-02-11T22:36:09.830Z,17.60
2023-02-11T22:38:37.058Z,18.00
2023-02-11T22:41:08.224Z,19.53
2023-02-11T22:43:35.578Z,19.80
2023-02-11T22:46:07.270Z,18.63
2023-02-11T22:48:35.584Z,18.17
2023-02-11T22:51:06.639Z,18.67
2023-02-11T22:53:34.293Z,19.20
2023-02-11T22:56:09.817Z,19.33
2023-02-11T22:58:37.349Z,18.83
2023-02-11T23:01:06.015Z,19.33
2023-02-11T23:03:33.736Z,18.70
2023-02-11T23:06:01.662Z,19.43
2023-02-11T23:08:29.563Z,18.43
2023-02-11T23:10:56.832Z,21.03
2023-02-11T23:13:24.123Z,18.60
2023-02-11T23:15:51.378Z,19.97
2023-02-11T23:18:18.792Z,19.73
2023-02-11T23:20:46.079Z,21.27
2023-02-11T23:23:13.306Z,20.07
2023-02-11T23:25:44.426Z,19.23
2023-02-11T23:28:12.034Z,18.63
2023-02-11T23:30:41.474Z,20.77
2023-02-11T23:33:08.764Z,20.03
2023-02-11T23:35:36.632Z,20.00
2023-02-11T23:38:04.142Z,19.93
2023-02-11T23:40:31.518Z,20.27
2023-02-11T23:42:58.757Z,19.67
2023-02-11T23:45:26.150Z,21.00
2023-02-11T23:47:53.614Z,20.87
2023-02-11T23:50:20.885Z,20.43
2023-02-11T23:52:48.210Z,21.40
2023-02-11T23:55:15.469Z,21.53
2023-02-11T23:57:42.685Z,21.77
